sensor_id;sensor_type;location;lat;lon;timestamp;temperature;humidity
8231;DHT22;4156;50.908;6.974;2023-04-06T00:01:49;8.30;99.90
8231;DHT22;4156;50.908;6.974;2023-04-06T00:04:16;8.30;99.90
8231;DHT22;4156;50.908;6.974;2023-04-06T00:06:41;8.30;99.90
8231;DHT22;4156;50.908;6.974;2023-04-06T00:09:07;8.30;99.90
8231;DHT22;4156;50.908;6.974;2023-04-06T00:11:33;8.30;99.90
8231;DHT22;4156;50.908;6.974;2023-04-06T00:13:58;8.30;99.90
8231;DHT22;4156;50.908;6.974;2023-04-06T00:16:24;8.20;99.90
8231;DHT22;4156;50.908;6.974;2023-04-06T00:18:49;8.20;99.90
8231;DHT22;4156;50.908;6.974;2023-04-06T00:21:15;8.20;99.90
8231;DHT22;4156;50.908;6.974;2023-04-06T00:23:41;8.10;99.90
8231;DHT22;4156;50.908;6.974;2023-04-06T00:26:08;8.00;99.90
8231;DHT22;4156;50.908;6.974;2023-04-06T00:28:34;8.00;99.90
8231;DHT22;4156;50.908;6.974;2023-04-06T00:30:59;8.10;99.90
8231;DHT22;4156;50.908;6.974;2023-04-06T00:33:25;8.00;99.90
8231;DHT22;4156;50.908;6.974;2023-04-06T00:35:51;8.00;99.90
8231;DHT22;4156;50.908;6.974;2023-04-06T00:38:17;8.10;99.90
8231;DHT22;4156;50.908;6.974;2023-04-06T00:40:43;8.00;99.90
8231;DHT22;4156;50.908;6.974;2023-04-06T00:43:10;8.00;99.90
8231;DHT22;4156;50.908;6.974;2023-04-06T00:45:37;8.00;99.90
8231;DHT22;4156;50.908;6.974;2023-04-06T00:48:03;7.90;99.90
8231;DHT22;4156;50.908;6.974;2023-04-06T00:50:29;7.90;99.90
8231;DHT22;4156;50.908;6.974;2023-04-06T00:52:54;7.90;99.90
8231;DHT22;4156;50.908;6.974;2023-04-06T00:55:20;7.90;99.90
8231;DHT22;4156;50.908;6.974;2023-04-06T00:57:46;7.80;99.90
8231;DHT22;4156;50.908;6.974;2023-04-06T01:00:12;7.90;99.90
8231;DHT22;4156;50.908;6.974;2023-04-06T01:02:38;7.90;99.90
8231;DHT22;4156;50.908;6.974;2023-04-06T01:05:04;7.90;99.90
8231;DHT22;4156;50.908;6.974;2023-04-06T01:07:30;7.90;99.90
8231;DHT22;4156;50.908;6.974;2023-04-06T01:09:55;7.90;99.90
8231;DHT22;4156;50.908;6.974;2023-04-06T01:12:21;7.80;99.90
8231;DHT22;4156;50.908;6.974;2023-04-06T01:14:47;7.80;99.90
8231;DHT22;4156;50.908;6.974;2023-04-06T01:17:12;7.80;99.90
8231;DHT22;4156;50.908;6.974;2023-04-06T01:19:38;7.70;99.90
8231;DHT22;4156;50.908;6.974;2023-04-06T01:22:05;7.70;99.90
8231;DHT22;4156;50.908;6.974;2023-04-06T01:24:31;7.70;99.90
8231;DHT22;4156;50.908;6.974;2023-04-06T01:26:57;7.70;99.90
8231;DHT22;4156;50.908;6.974;2023-04-06T01:29:22;7.60;99.90
8231;DHT22;4156;50.908;6.974;2023-04-06T01:31:48;7.60;99.90
8231;DHT22;4156;50.908;6.974;2023-04-06T01:34:13;7.60;99.90
8231;DHT22;4156;50.908;6.974;2023-04-06T01:36:39;7.60;99.90
8231;DHT22;4156;50.908;6.974;2023-04-06T01:39:04;7.60;99.90
8231;DHT22;4156;50.908;6.974;2023-04-06T01:41:30;7.50;99.90
8231;DHT22;4156;50.908;6.974;2023-04-06T01:43:56;7.50;99.90
8231;DHT22;4156;50.908;6.974;2023-04-06T01:46:21;7.50;99.90
8231;DHT22;4156;50.908;6.974;2023-04-06T01:48:47;7.40;99.90
8231;DHT22;4156;50.908;6.974;2023-04-06T01:51:12;7.30;99.90
8231;DHT22;4156;50.908;6.974;2023-04-06T01:53:38;7.30;99.90
8231;DHT22;4156;50.908;6.974;2023-04-06T01:56:03;7.30;99.90
8231;DHT22;4156;50.908;6.974;2023-04-06T01:58:29;7.30;99.90
8231;DHT22;4156;50.908;6.974;2023-04-06T02:00:55;7.30;99.90
8231;DHT22;4156;50.908;6.974;2023-04-06T02:03:20;7.20;99.90
8231;DHT22;4156;50.908;6.974;2023-04-06T02:05:46;7.20;99.90
8231;DHT22;4156;50.908;6.974;2023-04-06T02:08:11;7.20;99.90
8231;DHT22;4156;50.908;6.974;2023-04-06T02:10:37;7.20;99.90
8231;DHT22;4156;50.908;6.974;2023-04-06T02:13:02;7.20;99.90
8231;DHT22;4156;50.908;6.974;2023-04-06T02:15:28;7.20;99.90
8231;DHT22;4156;50.908;6.974;2023-04-06T02:17:53;7.20;99.90
8231;DHT22;4156;50.908;6.974;2023-04-06T02:20:19;7.10;99.90
8231;DHT22;4156;50.908;6.974;2023-04-06T02:22:45;7.10;99.90
8231;DHT22;4156;50.908;6.974;2023-04-06T02:25:10;7.10;99.90
8231;DHT22;4156;50.908;6.974;2023-04-06T02:27:36;7.10;99.90
8231;DHT22;4156;50.908;6.974;2023-04-06T02:30:03;7.10;99.90
8231;DHT22;4156;50.908;6.974;2023-04-06T02:32:29;7.10;99.90
8231;DHT22;4156;50.908;6.974;2023-04-06T02:34:54;7.00;99.90
8231;DHT22;4156;50.908;6.974;2023-04-06T02:37:20;7.00;99.90
8231;DHT22;4156;50.908;6.974;2023-04-06T02:39:46;7.00;99.90
8231;DHT22;4156;50.908;6.974;2023-04-06T02:42:11;7.00;99.90
8231;DHT22;4156;50.908;6.974;2023-04-06T02:44:37;7.00;99.90
8231;DHT22;4156;50.908;6.974;2023-04-06T02:47:02;7.00;99.90
8231;DHT22;4156;50.908;6.974;2023-04-06T02:49:28;7.00;99.90
8231;DHT22;4156;50.908;6.974;2023-04-06T02:51:53;7.00;99.90
8231;DHT22;4156;50.908;6.974;2023-04-06T02:54:19;6.90;99.90
8231;DHT22;4156;50.908;6.974;2023-04-06T02:56:45;6.90;99.90
8231;DHT22;4156;50.908;6.974;2023-04-06T02:59:10;6.90;99.90
8231;DHT22;4156;50.908;6.974;2023-04-06T03:01:36;6.90;99.90
8231;DHT22;4156;50.908;6.974;2023-04-06T03:04:02;6.90;99.90
8231;DHT22;4156;50.908;6.974;2023-04-06T03:06:28;6.90;99.90
8231;DHT22;4156;50.908;6.974;2023-04-06T03:08:53;6.80;99.90
8231;DHT22;4156;50.908;6.974;2023-04-06T03:11:19;6.80;99.90
8231;DHT22;4156;50.908;6.974;2023-04-06T03:13:44;6.80;99.90
8231;DHT22;4156;50.908;6.974;2023-04-06T03:16:10;6.80;99.90
8231;DHT22;4156;50.908;6.974;2023-04-06T03:18:36;6.80;99.90
8231;DHT22;4156;50.908;6.974;2023-04-06T03:21:01;6.80;99.90
8231;DHT22;4156;50.908;6.974;2023-04-06T03:23:27;6.70;99.90
8231;DHT22;4156;50.908;6.974;2023-04-06T03:25:52;6.70;99.90
8231;DHT22;4156;50.908;6.974;2023-04-06T03:28:18;6.70;99.90
8231;DHT22;4156;50.908;6.974;2023-04-06T03:30:44;6.70;99.90
8231;DHT22;4156;50.908;6.974;2023-04-06T03:33:09;6.60;99.90
8231;DHT22;4156;50.908;6.974;2023-04-06T03:35:35;6.50;99.90
8231;DHT22;4156;50.908;6.974;2023-04-06T03:38:02;6.50;99.90
8231;DHT22;4156;50.908;6.974;2023-04-06T03:40:28;6.50;99.90
8231;DHT22;4156;50.908;6.974;2023-04-06T03:42:53;6.50;99.90
8231;DHT22;4156;50.908;6.974;2023-04-06T03:45:19;6.40;99.90
8231;DHT22;4156;50.908;6.974;2023-04-06T03:47:44;6.40;99.90
8231;DHT22;4156;50.908;6.974;2023-04-06T03:50:10;6.40;99.90
8231;DHT22;4156;50.908;6.974;2023-04-06T03:52:35;6.40;99.90
8231;DHT22;4156;50.908;6.974;2023-04-06T03:55:01;6.40;99.90
8231;DHT22;4156;50.908;6.974;2023-04-06T03:57:27;6.40;99.90
8231;DHT22;4156;50.908;6.974;2023-04-06T03:59:52;6.40;99.90
8231;DHT22;4156;50.908;6.974;2023-04-06T04:02:18;6.40;99.90
8231;DHT22;4156;50.908;6.974;2023-04-06T04:04:43;6.40;99.90
8231;DHT22;4156;50.908;6.974;2023-04-06T04:07:09;6.40;99.90
8231;DHT22;4156;50.908;6.974;2023-04-06T04:09:34;6.40;99.90
8231;DHT22;4156;50.908;6.974;2023-04-06T04:12:00;6.40;99.90
8231;DHT22;4156;50.908;6.974;2023-04-06T04:14:26;6.40;99.90
8231;DHT22;4156;50.908;6.974;2023-04-06T04:16:51;6.30;99.90
8231;DHT22;4156;50.908;6.974;2023-04-06T04:19:17;6.30;99.90
8231;DHT22;4156;50.908;6.974;2023-04-06T04:21:46;6.40;99.90
8231;DHT22;4156;50.908;6.974;2023-04-06T04:24:12;6.30;99.90
8231;DHT22;4156;50.908;6.974;2023-04-06T04:26:39;6.30;99.90
8231;DHT22;4156;50.908;6.974;2023-04-06T04:29:05;6.30;99.90
8231;DHT22;4156;50.908;6.974;2023-04-06T04:31:30;6.30;99.90
8231;DHT22;4156;50.908;6.974;2023-04-06T04:33:56;6.20;99.90
8231;DHT22;4156;50.908;6.974;2023-04-06T04:36:22;6.20;99.90
8231;DHT22;4156;50.908;6.974;2023-04-06T04:38:48;6.20;99.90
8231;DHT22;4156;50.908;6.974;2023-04-06T04:41:13;6.10;99.90
8231;DHT22;4156;50.908;6.974;2023-04-06T04:43:39;6.10;99.90
8231;DHT22;4156;50.908;6.974;2023-04-06T04:46:05;6.00;99.90
8231;DHT22;4156;50.908;6.974;2023-04-06T04:48:30;6.00;99.90
8231;DHT22;4156;50.908;6.974;2023-04-06T04:50:56;6.00;99.90
8231;DHT22;4156;50.908;6.974;2023-04-06T04:53:22;5.90;99.90
8231;DHT22;4156;50.908;6.974;2023-04-06T04:55:49;5.90;99.90
8231;DHT22;4156;50.908;6.974;2023-04-06T04:58:15;5.90;99.90
8231;DHT22;4156;50.908;6.974;2023-04-06T05:00:42;5.90;99.90
8231;DHT22;4156;50.908;6.974;2023-04-06T05:03:08;5.90;99.90
8231;DHT22;4156;50.908;6.974;2023-04-06T05:05:34;5.90;99.90
8231;DHT22;4156;50.908;6.974;2023-04-06T05:08:00;5.90;99.90
8231;DHT22;4156;50.908;6.974;2023-04-06T05:10:26;5.90;99.90
8231;DHT22;4156;50.908;6.974;2023-04-06T05:12:53;5.80;99.90
8231;DHT22;4156;50.908;6.974;2023-04-06T05:15:19;5.80;99.90
8231;DHT22;4156;50.908;6.974;2023-04-06T05:17:44;5.90;99.90
8231;DHT22;4156;50.908;6.974;2023-04-06T05:20:12;5.90;99.90
8231;DHT22;4156;50.908;6.974;2023-04-06T05:22:38;5.90;99.90
8231;DHT22;4156;50.908;6.974;2023-04-06T05:25:04;5.90;99.90
8231;DHT22;4156;50.908;6.974;2023-04-06T05:27:29;5.90;99.90
8231;DHT22;4156;50.908;6.974;2023-04-06T05:29:55;5.90;99.90
8231;DHT22;4156;50.908;6.974;2023-04-06T05:32:21;5.90;99.90
8231;DHT22;4156;50.908;6.974;2023-04-06T05:34:48;5.80;99.90
8231;DHT22;4156;50.908;6.974;2023-04-06T05:37:15;5.80;99.90
8231;DHT22;4156;50.908;6.974;2023-04-06T05:39:40;5.90;99.90
8231;DHT22;4156;50.908;6.974;2023-04-06T05:42:06;5.90;99.90
8231;DHT22;4156;50.908;6.974;2023-04-06T05:44:31;5.90;99.90
8231;DHT22;4156;50.908;6.974;2023-04-06T05:46:57;5.90;99.90
8231;DHT22;4156;50.908;6.974;2023-04-06T05:49:23;5.90;99.90
8231;DHT22;4156;50.908;6.974;2023-04-06T05:51:48;6.00;99.90
8231;DHT22;4156;50.908;6.974;2023-04-06T05:54:14;6.00;99.90
8231;DHT22;4156;50.908;6.974;2023-04-06T05:56:39;5.90;99.90
8231;DHT22;4156;50.908;6.974;2023-04-06T05:59:05;6.00;99.90
8231;DHT22;4156;50.908;6.974;2023-04-06T06:01:31;6.00;99.90
8231;DHT22;4156;50.908;6.974;2023-04-06T06:03:56;6.00;99.90
8231;DHT22;4156;50.908;6.974;2023-04-06T06:06:22;6.00;99.90
8231;DHT22;4156;50.908;6.974;2023-04-06T06:08:47;6.00;99.90
8231;DHT22;4156;50.908;6.974;2023-04-06T06:11:13;6.10;99.90
8231;DHT22;4156;50.908;6.974;2023-04-06T06:13:38;6.10;99.90
8231;DHT22;4156;50.908;6.974;2023-04-06T06:16:04;6.10;99.90
8231;DHT22;4156;50.908;6.974;2023-04-06T06:18:30;6.20;99.90
8231;DHT22;4156;50.908;6.974;2023-04-06T06:20:56;6.20;99.90
8231;DHT22;4156;50.908;6.974;2023-04-06T06:23:22;6.20;99.90
8231;DHT22;4156;50.908;6.974;2023-04-06T06:25:47;6.30;99.90
8231;DHT22;4156;50.908;6.974;2023-04-06T06:28:13;6.30;99.90
8231;DHT22;4156;50.908;6.974;2023-04-06T06:30:39;6.40;99.90
8231;DHT22;4156;50.908;6.974;2023-04-06T06:33:04;6.40;99.90
8231;DHT22;4156;50.908;6.974;2023-04-06T06:35:30;6.40;99.90
8231;DHT22;4156;50.908;6.974;2023-04-06T06:37:56;6.50;99.90
8231;DHT22;4156;50.908;6.974;2023-04-06T06:40:21;6.50;99.90
8231;DHT22;4156;50.908;6.974;2023-04-06T06:42:49;6.60;99.90
8231;DHT22;4156;50.908;6.974;2023-04-06T06:45:15;6.70;99.90
8231;DHT22;4156;50.908;6.974;2023-04-06T06:47:41;6.70;99.90
8231;DHT22;4156;50.908;6.974;2023-04-06T06:50:06;6.80;99.90
8231;DHT22;4156;50.908;6.974;2023-04-06T06:52:32;6.80;99.90
8231;DHT22;4156;50.908;6.974;2023-04-06T06:54:58;6.90;99.90
8231;DHT22;4156;50.908;6.974;2023-04-06T06:57:23;6.90;99.90
8231;DHT22;4156;50.908;6.974;2023-04-06T06:59:49;6.90;99.90
8231;DHT22;4156;50.908;6.974;2023-04-06T07:02:14;7.00;99.90
8231;DHT22;4156;50.908;6.974;2023-04-06T07:04:40;7.10;99.90
8231;DHT22;4156;50.908;6.974;2023-04-06T07:07:05;7.20;99.90
8231;DHT22;4156;50.908;6.974;2023-04-06T07:09:31;7.30;99.90
8231;DHT22;4156;50.908;6.974;2023-04-06T07:11:56;7.30;99.90
8231;DHT22;4156;50.908;6.974;2023-04-06T07:14:22;7.30;99.90
8231;DHT22;4156;50.908;6.974;2023-04-06T07:16:48;7.40;99.90
8231;DHT22;4156;50.908;6.974;2023-04-06T07:19:15;7.40;99.90
8231;DHT22;4156;50.908;6.974;2023-04-06T07:21:40;7.50;99.90
8231;DHT22;4156;50.908;6.974;2023-04-06T07:24:06;7.50;99.90
8231;DHT22;4156;50.908;6.974;2023-04-06T07:26:32;7.50;99.90
8231;DHT22;4156;50.908;6.974;2023-04-06T07:28:57;7.50;99.90
8231;DHT22;4156;50.908;6.974;2023-04-06T07:31:23;7.60;99.90
8231;DHT22;4156;50.908;6.974;2023-04-06T07:33:48;7.70;99.90
8231;DHT22;4156;50.908;6.974;2023-04-06T07:36:15;7.80;99.90
8231;DHT22;4156;50.908;6.974;2023-04-06T07:38:40;7.90;99.90
8231;DHT22;4156;50.908;6.974;2023-04-06T07:41:06;7.90;99.90
8231;DHT22;4156;50.908;6.974;2023-04-06T07:43:31;7.90;99.90
8231;DHT22;4156;50.908;6.974;2023-04-06T07:45:57;7.90;99.90
8231;DHT22;4156;50.908;6.974;2023-04-06T07:48:23;8.00;99.90
8231;DHT22;4156;50.908;6.974;2023-04-06T07:50:48;8.00;99.90
8231;DHT22;4156;50.908;6.974;2023-04-06T07:53:14;8.10;99.90
8231;DHT22;4156;50.908;6.974;2023-04-06T07:55:39;8.10;99.90
8231;DHT22;4156;50.908;6.974;2023-04-06T07:58:05;8.20;99.90
8231;DHT22;4156;50.908;6.974;2023-04-06T08:00:31;8.10;99.90
8231;DHT22;4156;50.908;6.974;2023-04-06T08:02:56;8.20;99.90
8231;DHT22;4156;50.908;6.974;2023-04-06T08:05:22;8.20;99.90
8231;DHT22;4156;50.908;6.974;2023-04-06T08:07:47;8.20;99.90
8231;DHT22;4156;50.908;6.974;2023-04-06T08:10:13;8.20;99.90
8231;DHT22;4156;50.908;6.974;2023-04-06T08:12:38;8.20;99.90
8231;DHT22;4156;50.908;6.974;2023-04-06T08:15:05;8.20;99.90
8231;DHT22;4156;50.908;6.974;2023-04-06T08:17:32;8.20;99.90
8231;DHT22;4156;50.908;6.974;2023-04-06T08:19:59;8.30;99.90
8231;DHT22;4156;50.908;6.974;2023-04-06T08:22:24;8.30;99.90
8231;DHT22;4156;50.908;6.974;2023-04-06T08:24:51;8.30;99.90
8231;DHT22;4156;50.908;6.974;2023-04-06T08:27:16;8.40;99.90
8231;DHT22;4156;50.908;6.974;2023-04-06T08:29:41;8.40;99.90
8231;DHT22;4156;50.908;6.974;2023-04-06T08:32:08;8.40;99.90
8231;DHT22;4156;50.908;6.974;2023-04-06T08:34:34;8.50;99.90
8231;DHT22;4156;50.908;6.974;2023-04-06T08:36:59;8.50;99.90
8231;DHT22;4156;50.908;6.974;2023-04-06T08:39:25;8.60;99.90
8231;DHT22;4156;50.908;6.974;2023-04-06T08:41:53;8.60;99.90
8231;DHT22;4156;50.908;6.974;2023-04-06T08:44:22;8.60;99.90
8231;DHT22;4156;50.908;6.974;2023-04-06T08:46:48;8.70;99.90
8231;DHT22;4156;50.908;6.974;2023-04-06T08:49:14;8.70;99.90
8231;DHT22;4156;50.908;6.974;2023-04-06T08:51:42;8.70;99.90
8231;DHT22;4156;50.908;6.974;2023-04-06T08:54:07;8.70;99.90
8231;DHT22;4156;50.908;6.974;2023-04-06T08:56:36;8.70;99.90
8231;DHT22;4156;50.908;6.974;2023-04-06T08:59:03;8.70;99.90
8231;DHT22;4156;50.908;6.974;2023-04-06T09:01:29;8.80;99.90
8231;DHT22;4156;50.908;6.974;2023-04-06T09:03:58;8.80;99.90
8231;DHT22;4156;50.908;6.974;2023-04-06T09:06:24;8.80;99.90
8231;DHT22;4156;50.908;6.974;2023-04-06T09:08:51;8.80;99.90
8231;DHT22;4156;50.908;6.974;2023-04-06T09:11:17;8.90;99.90
8231;DHT22;4156;50.908;6.974;2023-04-06T09:13:46;9.00;99.90
8231;DHT22;4156;50.908;6.974;2023-04-06T09:16:12;9.10;99.90
8231;DHT22;4156;50.908;6.974;2023-04-06T09:18:38;9.10;99.90
8231;DHT22;4156;50.908;6.974;2023-04-06T09:21:05;9.10;99.90
8231;DHT22;4156;50.908;6.974;2023-04-06T09:23:31;9.20;99.90
8231;DHT22;4156;50.908;6.974;2023-04-06T09:26:12;9.20;99.90
8231;DHT22;4156;50.908;6.974;2023-04-06T09:31:12;9.30;99.90
8231;DHT22;4156;50.908;6.974;2023-04-06T09:33:40;9.30;99.90
8231;DHT22;4156;50.908;6.974;2023-04-06T09:36:07;9.30;99.90
8231;DHT22;4156;50.908;6.974;2023-04-06T09:38:36;9.40;99.90
8231;DHT22;4156;50.908;6.974;2023-04-06T09:41:01;9.50;99.90
8231;DHT22;4156;50.908;6.974;2023-04-06T09:43:27;9.50;99.90
8231;DHT22;4156;50.908;6.974;2023-04-06T09:45:55;9.50;99.90
8231;DHT22;4156;50.908;6.974;2023-04-06T09:48:21;9.50;99.90
8231;DHT22;4156;50.908;6.974;2023-04-06T09:50:54;9.60;99.90
8231;DHT22;4156;50.908;6.974;2023-04-06T09:53:23;9.60;99.90
8231;DHT22;4156;50.908;6.974;2023-04-06T09:55:52;9.60;99.90
8231;DHT22;4156;50.908;6.974;2023-04-06T09:58:22;9.60;99.90
8231;DHT22;4156;50.908;6.974;2023-04-06T10:03:36;9.70;99.90
8231;DHT22;4156;50.908;6.974;2023-04-06T10:06:13;9.70;99.90
8231;DHT22;4156;50.908;6.974;2023-04-06T10:08:49;9.70;99.90
8231;DHT22;4156;50.908;6.974;2023-04-06T10:11:29;9.70;99.90
8231;DHT22;4156;50.908;6.974;2023-04-06T10:13:58;9.70;99.90
8231;DHT22;4156;50.908;6.974;2023-04-06T10:16:57;9.80;99.90
8231;DHT22;4156;50.908;6.974;2023-04-06T10:19:32;9.80;99.90
8231;DHT22;4156;50.908;6.974;2023-04-06T10:22:04;9.90;99.90
8231;DHT22;4156;50.908;6.974;2023-04-06T10:24:40;10.00;99.90
8231;DHT22;4156;50.908;6.974;2023-04-06T10:27:13;10.00;99.90
8231;DHT22;4156;50.908;6.974;2023-04-06T10:30:06;10.00;99.90
8231;DHT22;4156;50.908;6.974;2023-04-06T11:44:39;10.80;99.90
8231;DHT22;4156;50.908;6.974;2023-04-06T12:05:17;11.00;99.90
8231;DHT22;4156;50.908;6.974;2023-04-06T12:22:37;11.20;99.90
8231;DHT22;4156;50.908;6.974;2023-04-06T13:30:29;11.70;99.90
8231;DHT22;4156;50.908;6.974;2023-04-06T13:33:34;11.70;99.90
8231;DHT22;4156;50.908;6.974;2023-04-06T14:18:00;12.00;99.90
8231;DHT22;4156;50.908;6.974;2023-04-06T14:44:44;12.00;99.90
8231;DHT22;4156;50.908;6.974;2023-04-06T14:48:02;12.00;99.90
8231;DHT22;4156;50.908;6.974;2023-04-06T14:57:50;12.00;99.90
8231;DHT22;4156;50.908;6.974;2023-04-06T15:00:21;12.00;99.90
8231;DHT22;4156;50.908;6.974;2023-04-06T15:02:47;12.00;99.90
8231;DHT22;4156;50.908;6.974;2023-04-06T15:05:15;12.00;99.90
8231;DHT22;4156;50.908;6.974;2023-04-06T15:07:41;12.00;99.90
8231;DHT22;4156;50.908;6.974;2023-04-06T15:10:09;12.00;99.90
8231;DHT22;4156;50.908;6.974;2023-04-06T15:12:36;12.00;99.90
8231;DHT22;4156;50.908;6.974;2023-04-06T15:15:03;12.00;99.90
8231;DHT22;4156;50.908;6.974;2023-04-06T15:17:30;12.00;99.90
8231;DHT22;4156;50.908;6.974;2023-04-06T15:19:55;11.90;99.90
8231;DHT22;4156;50.908;6.974;2023-04-06T15:22:21;11.90;99.90
8231;DHT22;4156;50.908;6.974;2023-04-06T15:24:46;12.00;99.90
8231;DHT22;4156;50.908;6.974;2023-04-06T15:27:12;11.90;99.90
8231;DHT22;4156;50.908;6.974;2023-04-06T15:29:37;11.90;99.90
8231;DHT22;4156;50.908;6.974;2023-04-06T15:32:03;11.90;99.90
8231;DHT22;4156;50.908;6.974;2023-04-06T15:34:30;11.90;99.90
8231;DHT22;4156;50.908;6.974;2023-04-06T15:37:00;11.80;99.90
8231;DHT22;4156;50.908;6.974;2023-04-06T15:39:26;11.80;99.90
8231;DHT22;4156;50.908;6.974;2023-04-06T15:41:53;11.80;99.90
8231;DHT22;4156;50.908;6.974;2023-04-06T15:44:19;11.80;99.90
8231;DHT22;4156;50.908;6.974;2023-04-06T15:46:44;11.70;99.90
8231;DHT22;4156;50.908;6.974;2023-04-06T15:49:10;11.70;99.90
8231;DHT22;4156;50.908;6.974;2023-04-06T15:51:36;11.70;99.90
8231;DHT22;4156;50.908;6.974;2023-04-06T15:54:01;11.70;99.90
8231;DHT22;4156;50.908;6.974;2023-04-06T15:56:27;11.60;99.90
8231;DHT22;4156;50.908;6.974;2023-04-06T15:58:52;11.60;99.90
8231;DHT22;4156;50.908;6.974;2023-04-06T16:01:18;11.50;99.90
8231;DHT22;4156;50.908;6.974;2023-04-06T16:03:44;11.50;99.90
8231;DHT22;4156;50.908;6.974;2023-04-06T16:06:11;11.50;99.90
8231;DHT22;4156;50.908;6.974;2023-04-06T16:08:38;11.40;99.90
8231;DHT22;4156;50.908;6.974;2023-04-06T16:11:04;11.30;99.90
8231;DHT22;4156;50.908;6.974;2023-04-06T16:13:30;11.30;99.90
8231;DHT22;4156;50.908;6.974;2023-04-06T16:15:55;11.30;99.90
8231;DHT22;4156;50.908;6.974;2023-04-06T16:18:21;11.30;99.90
8231;DHT22;4156;50.908;6.974;2023-04-06T16:20:46;11.20;99.90
8231;DHT22;4156;50.908;6.974;2023-04-06T16:23:12;11.20;99.90
8231;DHT22;4156;50.908;6.974;2023-04-06T16:25:38;11.20;99.90
8231;DHT22;4156;50.908;6.974;2023-04-06T16:28:03;11.20;99.90
8231;DHT22;4156;50.908;6.974;2023-04-06T16:30:29;11.20;99.90
8231;DHT22;4156;50.908;6.974;2023-04-06T16:32:56;11.20;99.90
8231;DHT22;4156;50.908;6.974;2023-04-06T16:35:22;11.20;99.90
8231;DHT22;4156;50.908;6.974;2023-04-06T16:37:48;11.10;99.90
8231;DHT22;4156;50.908;6.974;2023-04-06T16:40:14;11.60;99.90
8231;DHT22;4156;50.908;6.974;2023-04-06T16:42:43;11.10;99.90
8231;DHT22;4156;50.908;6.974;2023-04-06T16:45:09;11.10;99.90
8231;DHT22;4156;50.908;6.974;2023-04-06T16:47:36;11.10;99.90
8231;DHT22;4156;50.908;6.974;2023-04-06T16:50:02;11.00;99.90
8231;DHT22;4156;50.908;6.974;2023-04-06T16:52:27;11.00;99.90
8231;DHT22;4156;50.908;6.974;2023-04-06T16:54:53;11.00;99.90
8231;DHT22;4156;50.908;6.974;2023-04-06T16:57:18;11.00;99.90
8231;DHT22;4156;50.908;6.974;2023-04-06T16:59:44;11.00;99.90
8231;DHT22;4156;50.908;6.974;2023-04-06T17:02:11;10.90;99.90
8231;DHT22;4156;50.908;6.974;2023-04-06T17:04:36;10.90;99.90
8231;DHT22;4156;50.908;6.974;2023-04-06T17:07:02;10.90;99.90
8231;DHT22;4156;50.908;6.974;2023-04-06T17:09:27;10.80;99.90
8231;DHT22;4156;50.908;6.974;2023-04-06T17:11:53;10.80;99.90
8231;DHT22;4156;50.908;6.974;2023-04-06T17:14:18;10.80;99.90
8231;DHT22;4156;50.908;6.974;2023-04-06T17:16:44;10.80;99.90
8231;DHT22;4156;50.908;6.974;2023-04-06T17:19:10;10.80;99.90
8231;DHT22;4156;50.908;6.974;2023-04-06T17:21:35;10.70;99.90
8231;DHT22;4156;50.908;6.974;2023-04-06T17:24:01;10.70;99.90
8231;DHT22;4156;50.908;6.974;2023-04-06T17:26:26;10.70;99.90
8231;DHT22;4156;50.908;6.974;2023-04-06T17:28:52;10.70;99.90
8231;DHT22;4156;50.908;6.974;2023-04-06T17:31:17;10.70;99.90
8231;DHT22;4156;50.908;6.974;2023-04-06T17:33:43;10.70;99.90
8231;DHT22;4156;50.908;6.974;2023-04-06T17:36:08;10.70;99.90
8231;DHT22;4156;50.908;6.974;2023-04-06T17:38:35;10.60;99.90
8231;DHT22;4156;50.908;6.974;2023-04-06T17:41:01;10.60;99.90
8231;DHT22;4156;50.908;6.974;2023-04-06T17:43:29;10.60;99.90
8231;DHT22;4156;50.908;6.974;2023-04-06T17:45:55;10.50;99.90
8231;DHT22;4156;50.908;6.974;2023-04-06T17:48:21;10.50;99.90
8231;DHT22;4156;50.908;6.974;2023-04-06T17:50:46;10.50;99.90
8231;DHT22;4156;50.908;6.974;2023-04-06T17:53:12;10.50;99.90
8231;DHT22;4156;50.908;6.974;2023-04-06T17:55:37;10.50;99.90
8231;DHT22;4156;50.908;6.974;2023-04-06T17:58:03;10.40;99.90
8231;DHT22;4156;50.908;6.974;2023-04-06T18:00:29;10.40;99.90
8231;DHT22;4156;50.908;6.974;2023-04-06T18:02:55;10.40;99.90
8231;DHT22;4156;50.908;6.974;2023-04-06T18:05:23;10.40;99.90
8231;DHT22;4156;50.908;6.974;2023-04-06T18:07:49;10.40;99.90
8231;DHT22;4156;50.908;6.974;2023-04-06T18:10:17;10.40;99.90
8231;DHT22;4156;50.908;6.974;2023-04-06T18:12:43;10.30;99.90
8231;DHT22;4156;50.908;6.974;2023-04-06T18:15:08;10.30;99.90
8231;DHT22;4156;50.908;6.974;2023-04-06T18:17:34;10.30;99.90
8231;DHT22;4156;50.908;6.974;2023-04-06T18:19:59;10.30;99.90
8231;DHT22;4156;50.908;6.974;2023-04-06T18:22:25;10.30;99.90
8231;DHT22;4156;50.908;6.974;2023-04-06T18:24:51;10.30;99.90
8231;DHT22;4156;50.908;6.974;2023-04-06T18:27:17;10.30;99.90
8231;DHT22;4156;50.908;6.974;2023-04-06T18:29:45;10.30;99.90
8231;DHT22;4156;50.908;6.974;2023-04-06T18:32:13;10.30;99.90
8231;DHT22;4156;50.908;6.974;2023-04-06T18:34:40;10.20;99.90
8231;DHT22;4156;50.908;6.974;2023-04-06T18:37:06;10.20;99.90
8231;DHT22;4156;50.908;6.974;2023-04-06T18:39:32;10.20;99.90
8231;DHT22;4156;50.908;6.974;2023-04-06T18:41:57;10.10;99.90
8231;DHT22;4156;50.908;6.974;2023-04-06T18:44:23;10.10;99.90
8231;DHT22;4156;50.908;6.974;2023-04-06T18:46:48;10.10;99.90
8231;DHT22;4156;50.908;6.974;2023-04-06T18:49:14;10.10;99.90
8231;DHT22;4156;50.908;6.974;2023-04-06T18:51:40;10.10;99.90
8231;DHT22;4156;50.908;6.974;2023-04-06T18:54:07;10.10;99.90
8231;DHT22;4156;50.908;6.974;2023-04-06T18:56:33;10.10;99.90
8231;DHT22;4156;50.908;6.974;2023-04-06T18:58:58;10.10;99.90
8231;DHT22;4156;50.908;6.974;2023-04-06T19:01:26;10.10;99.90
8231;DHT22;4156;50.908;6.974;2023-04-06T19:03:53;10.10;99.90
8231;DHT22;4156;50.908;6.974;2023-04-06T19:06:19;10.10;99.90
8231;DHT22;4156;50.908;6.974;2023-04-06T19:08:45;10.00;99.90
8231;DHT22;4156;50.908;6.974;2023-04-06T19:11:11;10.00;99.90
8231;DHT22;4156;50.908;6.974;2023-04-06T19:13:36;10.00;99.90
8231;DHT22;4156;50.908;6.974;2023-04-06T19:16:09;10.00;99.90
8231;DHT22;4156;50.908;6.974;2023-04-06T19:18:36;10.10;99.90
8231;DHT22;4156;50.908;6.974;2023-04-06T19:21:02;10.10;99.90
8231;DHT22;4156;50.908;6.974;2023-04-06T19:23:29;10.00;99.90
8231;DHT22;4156;50.908;6.974;2023-04-06T19:25:54;10.00;99.90
8231;DHT22;4156;50.908;6.974;2023-04-06T19:28:20;10.00;99.90
8231;DHT22;4156;50.908;6.974;2023-04-06T19:30:46;9.90;99.90
8231;DHT22;4156;50.908;6.974;2023-04-06T19:33:11;9.90;99.90
8231;DHT22;4156;50.908;6.974;2023-04-06T19:35:37;9.90;99.90
8231;DHT22;4156;50.908;6.974;2023-04-06T19:38:03;9.90;99.90
8231;DHT22;4156;50.908;6.974;2023-04-06T19:40:28;9.90;99.90
8231;DHT22;4156;50.908;6.974;2023-04-06T19:42:54;9.80;99.90
8231;DHT22;4156;50.908;6.974;2023-04-06T19:45:20;9.80;99.90
8231;DHT22;4156;50.908;6.974;2023-04-06T19:47:45;9.80;99.90
8231;DHT22;4156;50.908;6.974;2023-04-06T19:50:11;9.80;99.90
8231;DHT22;4156;50.908;6.974;2023-04-06T19:52:36;9.90;99.90
8231;DHT22;4156;50.908;6.974;2023-04-06T19:55:02;9.80;99.90
8231;DHT22;4156;50.908;6.974;2023-04-06T19:57:28;9.80;99.90
8231;DHT22;4156;50.908;6.974;2023-04-06T19:59:54;9.80;99.90
8231;DHT22;4156;50.908;6.974;2023-04-06T20:02:20;9.80;99.90
8231;DHT22;4156;50.908;6.974;2023-04-06T20:04:46;9.80;99.90
8231;DHT22;4156;50.908;6.974;2023-04-06T20:07:11;9.80;99.90
8231;DHT22;4156;50.908;6.974;2023-04-06T20:09:37;9.80;99.90
8231;DHT22;4156;50.908;6.974;2023-04-06T20:12:03;9.80;99.90
8231;DHT22;4156;50.908;6.974;2023-04-06T20:14:28;9.90;99.90
8231;DHT22;4156;50.908;6.974;2023-04-06T20:16:55;9.80;99.90